Date,TemperatureHighF,TemperatureAvgF,TemperatureLowF,DewpointHighF,DewpointAvgF,DewpointLowF,HumidityHigh,HumidityAvg,HumidityLow,PressureMaxIn,PressureMinIn,WindSpeedMaxMPH,WindSpeedAvgMPH,GustSpeedMaxMPH,PrecipitationSumIn
2013-1-1,34.0,25.8,19.0,10.0,2.3,-9.0,51,36,24,30.32,30.21,5,2,10,0.00
2013-1-2,38.0,26.9,18.0,8.0,3.5,-2.0,56,37,24,30.32,30.24,7,2,11,0.00
2013-1-4,48.0,39.6,32.0,2.0,-8.4,-20.0,22,14,5,30.27,30.21,1,1,5,0.01
2013-1-5,52.0,38.6,31.0,12.0,0.4,-16.0,38,21,9,30.29,30.09,2,0,6,0.02
2013-1-6,34.0,28.1,24.0,25.0,17.8,3.0,92,69,28,30.09,29.94,12,3,16,0.00
2013-1-7,33.0,26.4,19.0,22.0,15.0,7.0,93,66,35,30.27,29.98,7,2,17,0.00
2013-1-8,47.0,39.2,32.0,26.0,19.2,7.0,69,46,28,30.32,30.22,6,2,10,0.00
2013-1-9,55.0,43.5,37.0,28.0,22.2,15.0,66,43,26,30.24,29.83,12,2,21,0.01
2013-1-10,40.0,24.7,13.0,27.0,17.0,9.0,91,76,31,29.98,29.62,9,4,19,0.00
2013-1-11,22.0,15.3,10.0,12.0,9.3,6.0,89,78,57,30.22,29.98,3,1,7,0.00
2013-1-12,24.0,14.1,7.0,8.0,3.9,-1.0,88,66,35,30.27,30.15,8,1,9,0.00
2013-1-13,27.0,15.7,7.0,2.0,-1.1,-10.0,71,50,25,30.29,30.17,4,1,6,0.00
2013-1-14,20.0,12.4,4.0,2.0,-8.0,-16.0,68,41,23,30.61,30.28,15,4,22,0.00
2013-1-15,32.0,25.9,19.0,19.0,13.7,5.0,69,59,51,30.66,30.57,6,3,15,0.00
2013-1-16,45.0,36.7,28.0,19.0,13.9,2.0,64,41,23,30.58,30.34,8,3,13,0.00
2013-1-17,46.0,36.7,31.0,11.0,3.4,-8.0,34,25,13,30.35,30.23,5,2,9,0.00
2013-1-18,49.0,39.0,30.0,13.0,7.0,-9.0,41,27,14,30.30,30.20,8,2,9,0.00
2013-1-19,48.0,39.3,31.0,2.0,-6.3,-19.0,22,14,9,30.32,30.23,6,2,10,0.00
2013-1-20,48.0,39.6,32.0,6.0,-4.7,-14.0,20,15,8,30.27,30.16,5,2,8,0.00
2013-1-21,49.0,40.3,34.0,-1.0,-5.4,-13.0,18,14,10,30.24,30.15,6,2,9,0.00
2013-1-22,57.0,44.6,31.0,12.0,-0.6,-18.0,29,16,6,30.23,30.14,2,1,5,0.00
2013-1-23,54.0,45.6,41.0,34.0,26.8,15.0,71,49,30,30.17,30.02,8,2,16,0.02
2013-1-24,49.0,41.6,38.0,42.0,37.6,35.0,95,86,72,30.15,29.98,3,0,8,0.27
2013-1-25,46.0,40.2,38.0,42.0,38.2,35.0,97,93,85,30.15,29.93,1,0,4,0.30
2013-1-26,42.0,38.4,35.0,40.0,36.9,32.0,98,95,90,29.93,29.84,4,1,9,0.11
2013-1-27,35.0,30.7,21.0,34.0,27.0,18.0,96,86,73,29.91,29.81,9,3,14,0.01
2013-1-28,26.0,20.9,17.0,19.0,15.7,6.0,93,81,56,30.27,29.89,4,1,8,0.00
2013-1-29,48.0,36.7,20.0,27.0,20.2,9.0,73,52,41,30.33,30.26,8,2,11,0.16
2013-1-30,48.0,42.7,37.0,23.0,21.5,19.0,50,43,36,30.31,30.23,5,2,10,0.00
2013-1-31,47.0,40.1,35.0,26.0,24.2,19.0,65,53,38,30.26,30.17,7,2,11,0.00
2013-2-1,54.0,43.3,34.0,27.0,20.4,14.0,57,41,22,30.25,30.17,3,1,7,0.00
2013-2-2,55.0,45.4,37.0,27.0,21.8,15.0,52,40,25,30.24,30.13,4,1,7,0.00
2013-2-3,48.0,39.1,35.0,38.0,31.4,22.0,96,75,54,30.13,29.99,5,1,7,0.18
2013-2-4,50.0,40.6,33.0,27.0,22.0,6.0,71,49,28,30.14,30.05,5,2,10,0.00
2013-2-5,53.0,43.0,35.0,24.0,13.8,2.0,57,32,20,30.09,29.90,4,1,8,0.00
2013-2-6,47.0,38.7,32.0,24.0,6.2,-11.0,59,29,9,30.10,29.86,4,2,11,0.00
2013-2-7,49.0,37.5,27.0,25.0,6.3,-14.0,78,32,12,30.12,29.80,8,3,15,0.00
2013-2-8,26.0,20.5,17.0,22.0,18.0,14.0,91,89,81,29.91,29.72,10,2,15,0.00
2013-2-9,31.0,22.0,17.0,26.0,17.2,10.0,91,82,64,30.14,29.91,1,0,2,0.13
2013-2-10,36.0,23.4,16.0,20.0,12.6,7.0,84,64,38,30.15,30.05,5,1,7,0.00
2013-2-11,25.0,20.7,16.0,19.0,7.3,-5.0,90,59,34,30.39,30.10,10,2,14,0.00
2013-2-12,36.0,27.3,20.0,11.0,5.2,-1.0,48,39,28,30.48,30.38,4,2,9,0.00
2013-2-13,44.0,35.4,29.0,20.0,14.9,8.0,55,43,32,30.40,30.22,4,2,9,0.01
2013-2-14,42.0,36.5,31.0,23.0,19.2,15.0,62,50,40,30.32,30.20,6,2,12,0.00
2013-2-15,49.0,38.6,32.0,18.0,6.7,-5.0,54,28,12,30.35,30.28,9,4,18,0.00
2013-2-16,53.0,41.9,33.0,12.0,2.0,-16.0,30,19,8,30.35,30.03,6,2,7,0.00
2013-2-17,47.0,39.1,32.0,18.0,10.5,2.0,45,31,22,30.01,29.89,5,2,9,0.00
2013-2-18,51.0,38.1,28.0,24.0,11.4,-10.0,67,36,15,30.02,29.88,3,1,7,0.00
2013-2-19,43.0,30.2,21.0,24.0,10.5,-17.0,91,54,8,29.87,29.53,10,2,16,0.00
2013-2-20,27.0,20.4,14.0,24.0,17.9,11.0,93,90,84,30.08,29.49,4,1,12,0.00
2013-2-21,30.0,23.6,18.0,16.0,10.5,2.0,81,58,31,30.20,30.05,6,1,12,0.00
2013-2-22,40.0,30.6,19.0,17.0,9.2,2.0,59,41,26,30.31,30.20,3,1,8,0.14
2013-2-23,47.0,36.8,25.0,23.0,14.3,6.0,81,43,19,30.25,29.86,6,2,13,0.02
2013-2-24,30.0,24.2,17.0,9.0,-3.1,-16.0,54,31,15,30.36,29.98,8,4,24,0.00
2013-2-25,50.0,38.5,25.0,14.0,0.4,-20.0,31,20,11,30.38,30.07,4,1,6,0.00
2013-2-26,40.0,34.1,27.0,13.0,3.7,-6.0,35,28,18,30.19,29.99,6,2,10,0.00
2013-2-27,39.0,32.7,25.0,6.0,1.5,-4.0,33,26,22,30.42,30.21,9,2,11,0.00
2013-2-28,46.0,38.8,31.0,15.0,7.4,-1.0,38,27,23,30.45,30.39,7,3,13,0.00
2013-3-1,51.0,42.7,36.0,17.0,13.3,8.0,39,30,23,30.43,30.31,14,3,16,0.00
2013-3-2,59.0,46.8,36.0,22.0,13.8,2.0,51,28,12,30.35,30.11,3,1,8,0.00
2013-3-3,49.0,41.7,34.0,29.0,22.5,7.0,80,49,23,30.10,29.82,13,5,19,0.01
2013-3-4,49.0,39.0,30.0,31.0,26.2,4.0,92,64,24,30.13,29.87,7,2,12,0.00
2013-3-5,52.0,41.6,32.0,37.0,24.0,-6.0,84,52,14,30.10,29.91,5,1,9,0.00
2013-3-6,47.0,36.6,28.0,28.0,19.5,4.0,87,54,23,29.97,29.89,4,2,12,0.00
2013-3-7,40.0,31.0,24.0,31.0,26.0,21.0,93,83,63,29.91,29.83,5,2,10,0.00
2013-3-8,27.0,24.8,22.0,26.0,22.3,20.0,94,90,85,30.01,29.70,8,2,14,0.00
2013-3-9,37.0,29.8,24.0,27.0,23.3,19.0,94,78,57,30.32,30.01,5,2,14,0.06
2013-3-10,45.0,37.2,27.0,19.0,9.5,1.0,68,35,19,30.39,30.28,5,2,9,0.00
2013-3-11,54.0,45.6,36.0,13.0,3.8,-7.0,26,18,9,30.33,30.10,5,1,9,0.00
2013-3-12,58.0,49.5,40.0,25.0,16.7,0.0,47,28,17,30.14,30.06,8,2,11,0.00
2013-3-13,63.0,54.0,44.0,24.0,17.7,10.0,37,24,18,30.18,30.09,6,2,12,0.00
2013-3-14,68.0,57.7,45.0,29.0,21.4,15.0,34,25,18,30.12,30.02,8,2,12,0.00
2013-3-15,67.0,55.3,45.0,28.0,20.2,5.0,46,28,9,30.03,29.86,4,1,10,0.00
2013-3-16,62.0,54.1,44.0,22.0,20.3,18.0,39,27,19,29.83,29.81,3,1,10,0.00
2013-3-18,53.0,47.8,45.0,24.0,20.0,16.0,40,33,26,29.93,29.90,2,0,4,0.00
2013-3-19,59.0,47.9,39.0,30.0,24.6,16.0,54,41,25,30.02,29.89,7,2,9,0.00
2013-3-20,54.0,48.0,43.0,35.0,29.1,22.0,66,49,28,30.02,29.85,7,2,14,0.00
2013-3-21,64.0,48.8,39.0,30.0,18.6,-2.0,60,34,10,29.85,29.65,5,2,9,0.00
2013-3-22,56.0,43.9,35.0,23.0,10.4,-7.0,54,27,9,29.86,29.65,6,2,10,0.00
2013-3-23,56.0,47.7,38.0,24.0,11.8,-7.0,46,25,14,29.96,29.85,7,2,11,0.00
2013-3-24,57.0,51.3,41.0,23.0,16.8,11.0,44,26,17,29.95,29.88,3,1,10,0.00
2013-3-25,62.0,51.1,40.0,29.0,14.9,4.0,60,25,14,29.93,29.85,6,1,10,0.00
2013-3-26,58.0,46.2,38.0,32.0,15.6,-13.0,69,36,5,29.86,29.81,6,1,10,0.00
2013-3-27,52.0,43.2,36.0,33.0,28.8,20.0,84,58,43,29.96,29.80,5,2,15,0.00
2013-3-28,59.0,46.9,36.0,35.0,29.3,26.0,78,53,32,30.02,29.95,5,2,11,0.00
2013-3-29,60.0,47.6,36.0,36.0,30.2,26.0,72,53,29,30.06,30.00,10,1,10,0.00
2013-3-30,55.0,46.8,40.0,34.0,32.1,29.0,78,58,38,30.05,29.92,2,0,9,0.00
2013-3-31,54.0,43.2,35.0,36.0,32.7,28.0,86,68,42,29.96,29.90,4,2,10,0.00
2013-4-1,55.0,41.7,32.0,30.0,21.8,11.0,84,49,20,30.02,29.93,4,2,11,0.00
2013-4-2,55.0,43.5,31.0,29.0,24.2,13.0,81,48,28,30.07,29.98,9,2,12,0.00
2013-4-3,61.0,52.8,40.0,35.0,27.8,20.0,62,40,27,30.07,29.98,8,2,12,0.00
2013-4-4,61.0,50.2,40.0,39.0,26.0,16.0,74,43,18,30.01,29.86,5,2,10,0.00
2013-4-5,64.0,47.8,36.0,39.0,30.2,19.0,90,55,21,29.93,29.85,6,2,9,0.00
2013-4-6,64.0,49.6,38.0,35.0,21.9,12.0,54,34,22,29.93,29.83,3,1,11,0.00
2013-4-7,64.0,50.9,40.0,36.0,26.2,12.0,56,39,24,29.87,29.66,3,2,9,0.00
2013-4-8,42.0,33.5,28.0,32.0,27.4,24.0,96,79,53,29.75,29.32,14,4,17,0.03
2013-4-9,44.0,34.8,26.0,24.0,10.3,-4.0,83,41,16,30.11,29.75,10,3,14,0.00
2013-4-10,52.0,43.3,35.0,13.0,9.0,-1.0,38,26,11,30.17,30.07,12,5,22,0.00
2013-4-11,59.0,50.6,42.0,27.0,20.3,13.0,54,31,20,30.07,29.68,8,2,12,0.00
2013-4-12,60.0,50.6,41.0,32.0,25.4,22.0,53,38,24,29.80,29.70,7,1,14,0.00
2013-4-13,58.0,50.6,44.0,26.0,21.0,-7.0,46,32,10,29.81,29.65,14,3,17,0.00
2013-4-14,68.0,55.6,44.0,29.0,22.1,11.0,41,28,17,29.68,29.52,4,2,15,0.00
2013-4-15,64.0,47.4,37.0,24.0,12.5,-9.0,56,28,7,29.57,29.50,5,2,12,0.00
2013-4-16,45.0,35.1,25.0,26.0,13.7,-12.0,79,45,11,29.90,29.55,6,2,13,0.00
2013-4-17,42.0,31.7,22.0,21.0,10.1,1.0,87,46,19,30.26,29.90,8,3,16,0.00
2013-4-18,46.0,36.3,26.0,5.0,-0.8,-10.0,39,22,9,30.31,30.26,7,3,13,0.00
2013-4-19,58.0,48.8,36.0,14.0,5.0,-4.0,27,17,11,30.29,29.99,5,2,11,0.00
2013-4-20,65.0,53.7,42.0,29.0,20.1,15.0,44,28,14,29.97,29.90,6,2,12,0.00
2013-4-21,72.0,57.2,43.0,29.0,21.4,11.0,48,28,10,29.95,29.85,4,1,7,0.00
2013-4-22,74.0,60.5,48.0,28.0,18.3,-4.0,40,21,8,29.88,29.67,3,1,7,0.00
2013-4-23,60.0,51.9,44.0,27.0,17.2,8.0,48,27,15,29.83,29.67,8,2,12,0.00
2013-4-24,63.0,51.6,42.0,28.0,21.9,16.0,51,33,17,29.83,29.71,6,2,14,0.00
2013-4-25,60.0,50.3,38.0,28.0,20.0,11.0,60,33,15,29.97,29.70,6,1,13,0.00
2013-4-26,64.0,53.7,40.0,23.0,17.6,10.0,40,25,14,30.10,29.98,9,2,12,0.00
2013-4-27,66.0,57.1,44.0,27.0,15.0,6.0,48,22,10,30.11,29.98,9,2,11,0.00
2013-4-28,71.0,60.5,48.0,24.0,17.4,8.0,34,20,11,29.98,29.79,7,2,13,0.00
2013-4-29,73.0,63.2,49.0,27.0,19.6,7.0,32,20,13,29.81,29.63,11,3,13,0.00
2013-4-30,72.0,60.7,51.0,35.0,21.4,1.0,34,23,11,29.65,29.56,6,2,9,0.00
2013-5-1,59.0,52.0,46.0,29.0,5.7,-18.0,51,19,7,30.12,29.64,10,4,15,0.00
2013-5-2,60.0,49.4,43.0,-4.0,-12.5,-29.0,11,7,2,30.21,30.12,12,3,14,0.00
2013-5-3,66.0,54.7,40.0,14.0,2.3,-9.0,21,12,6,30.12,29.82,7,2,11,0.00
2013-5-4,67.0,54.5,45.0,34.0,14.9,6.0,47,23,11,29.80,29.55,7,2,14,0.00
2013-5-5,49.0,43.1,35.0,36.0,24.9,10.0,92,53,24,29.80,29.60,10,2,11,0.00
2013-5-6,51.0,39.8,33.0,39.0,34.3,29.0,96,82,56,29.91,29.78,8,2,14,0.01
2013-5-7,49.0,38.0,30.0,33.0,30.3,27.0,90,75,46,29.99,29.88,5,1,10,0.00
2013-5-8,52.0,41.8,30.0,40.0,33.0,27.0,95,73,48,30.03,29.98,8,2,10,0.00
2013-5-9,56.0,45.3,36.0,40.0,35.1,28.0,92,71,34,30.04,29.96,7,2,12,0.20
2013-5-10,60.0,51.6,41.0,42.0,33.9,28.0,88,55,30,30.10,30.02,11,3,15,0.00
2013-5-11,67.0,60.1,48.0,33.0,27.7,24.0,47,30,20,30.10,30.01,8,3,19,0.00
2013-5-12,74.0,62.8,50.0,32.0,24.4,19.0,42,24,15,30.07,29.92,8,2,11,0.00
2013-5-13,77.0,65.8,52.0,34.0,28.9,22.0,43,26,15,29.97,29.83,6,2,13,0.00
2013-5-14,72.0,61.9,49.0,28.0,21.5,11.0,36,22,13,29.84,29.69,8,2,18,0.00
2013-5-15,74.0,57.8,49.0,39.0,29.2,15.0,58,35,17,29.82,29.74,4,1,6,0.00
2013-5-16,71.0,54.4,50.0,31.0,0.3,-99.9,46,21,1,29.77,29.65,4,2,9,0.00
2013-5-17,59.0,48.5,42.0,37.0,26.2,-99.9,82,52,30,29.82,29.62,9,2,14,0.00
2013-5-18,67.0,53.4,38.0,36.0,29.0,23.0,88,43,20,29.92,29.82,5,1,8,0.00
2013-5-19,67.0,55.8,43.0,32.0,23.8,19.0,53,30,20,29.86,29.81,5,2,9,0.00
2013-5-20,65.0,56.8,48.0,25.0,20.1,16.0,38,24,18,29.91,29.85,5,2,10,0.00
2013-5-21,70.0,59.5,46.0,37.0,24.6,3.0,51,28,15,29.91,29.68,3,2,12,0.00
2013-5-22,68.0,55.0,46.0,30.0,17.1,-12.0,41,26,4,29.69,29.53,9,3,16,0.00
2013-5-23,66.0,53.7,44.0,30.0,-0.4,-49.0,48,17,1,29.75,29.56,5,2,10,0.00
2013-5-24,70.0,55.1,41.0,38.0,15.0,-25.0,58,26,4,29.79,29.74,5,1,7,0.00
2013-5-25,71.0,53.7,41.0,20.0,6.2,-17.0,31,17,3,29.82,29.76,2,0,6,0.00
2013-5-26,70.0,55.0,44.0,35.0,19.6,-1.0,62,28,14,29.83,29.78,3,1,10,0.00
2013-5-27,72.0,57.0,44.0,42.0,27.8,15.0,59,36,14,29.81,29.69,5,1,9,0.00
2013-5-28,68.0,55.1,46.0,38.0,32.1,27.0,63,43,26,29.69,29.58,3,1,8,0.00
2013-5-29,71.0,60.5,46.0,42.0,28.9,15.0,59,32,13,29.70,29.60,4,1,13,0.00
2013-5-30,78.0,65.6,51.0,43.0,28.0,13.0,43,26,9,29.70,29.63,6,2,8,0.00
2013-5-31,73.0,66.4,56.0,25.0,22.0,6.0,26,18,11,29.77,29.66,5,2,14,0.00
2013-6-1,76.0,67.8,58.0,28.0,20.8,16.0,29,18,11,29.76,29.68,7,2,14,0.00
2013-6-2,82.0,67.8,55.0,42.0,31.9,23.0,44,28,14,29.69,29.50,7,1,10,0.00
2013-6-12,81.0,69.5,54.0,44.0,32.5,16.0,49,27,13,29.79,29.68,4,1,9,0.00
2013-6-13,79.0,69.6,55.0,25.0,15.6,-2.0,30,14,4,29.80,29.73,4,2,7,0.00
2013-6-14,80.0,69.3,52.0,33.0,19.6,-2.0,34,18,4,29.73,29.64,3,1,9,0.00
2013-6-15,76.0,67.5,47.0,25.0,13.3,-5.0,26,13,5,29.76,29.66,3,1,10,0.00
2013-6-16,75.0,67.1,53.0,19.0,13.9,-9.0,25,13,7,29.83,29.79,7,2,9,0.00
2013-6-17,81.0,70.1,50.0,27.0,18.0,3.0,28,16,6,29.80,29.73,4,1,5,0.00
2013-6-18,81.0,65.3,52.0,35.0,17.9,-1.0,43,20,4,29.74,29.60,3,1,9,0.00
2013-6-19,76.0,61.3,51.0,26.0,12.9,-12.0,31,18,3,29.66,29.57,3,1,8,0.00
2013-6-20,77.0,66.2,53.0,20.0,8.9,-20.0,17,11,4,29.66,29.62,4,2,5,0.00
2013-6-22,72.0,62.7,56.0,39.0,31.5,22.0,45,33,15,29.67,29.64,1,0,6,0.00
2013-6-23,76.0,63.6,53.0,36.0,28.3,22.0,51,28,17,29.66,29.55,4,2,10,0.00
2013-6-24,65.0,56.9,51.0,44.0,35.9,18.0,67,47,21,29.76,29.56,6,2,9,0.00
2013-6-25,79.0,67.1,48.0,49.0,44.4,39.0,80,47,26,29.82,29.74,4,1,8,0.00
2013-6-26,83.0,70.4,56.0,49.0,45.3,42.0,72,43,24,29.85,29.75,4,1,12,0.00
2013-6-27,81.0,69.7,58.0,47.0,42.5,36.0,55,39,26,29.88,29.83,7,1,11,0.00
2013-6-28,89.0,76.0,62.0,41.0,34.8,22.0,40,24,15,29.87,29.75,4,1,9,0.00
2013-6-29,89.0,77.5,65.0,38.0,31.9,23.0,34,20,12,29.79,29.65,3,1,6,0.00
2013-6-30,86.0,78.4,67.0,40.0,32.2,22.0,24,19,14,29.67,29.60,2,1,7,0.00
2013-7-1,83.0,73.8,63.0,49.0,40.5,32.0,48,31,20,29.70,29.63,4,1,9,0.00
2013-7-2,84.0,73.1,62.0,43.0,40.8,36.0,50,33,21,29.80,29.71,4,1,7,0.00
2013-7-3,90.0,79.4,69.0,45.0,41.4,36.0,39,27,19,29.73,29.59,4,1,11,0.00
2013-7-4,85.0,76.9,66.0,44.0,39.8,29.0,38,27,21,29.60,29.52,4,1,8,0.00
2013-7-5,85.0,75.5,64.0,45.0,36.2,29.0,51,26,14,29.60,29.53,3,1,9,0.00
2013-7-6,81.0,69.7,60.0,44.0,33.6,18.0,50,28,15,29.64,29.56,3,1,6,0.00
2013-7-7,86.0,73.2,60.0,39.0,31.5,20.0,30,22,17,29.70,29.60,4,2,7,0.00
2013-7-8,85.0,72.5,56.0,30.0,25.6,20.0,30,19,9,29.84,29.70,2,1,8,0.00
2013-7-9,87.0,75.2,61.0,38.0,31.4,22.0,29,21,12,29.86,29.79,3,1,9,0.00
2013-7-10,84.0,70.2,65.0,42.0,31.5,-99.9,37,26,18,29.82,29.67,4,1,7,0.00
2013-7-11,67.0,63.5,59.0,48.0,43.3,35.0,64,48,33,29.75,29.66,3,0,6,0.00
2013-7-12,74.0,62.8,55.0,51.0,44.8,35.0,70,53,37,29.82,29.74,2,0,7,0.00
2013-7-13,73.0,66.5,56.0,44.0,40.9,33.0,59,40,24,29.86,29.77,3,1,9,0.00
2013-7-14,78.0,67.6,58.0,47.0,41.0,34.0,47,38,27,29.82,29.70,2,0,6,0.00
2013-7-15,81.0,67.7,58.0,47.0,40.6,29.0,55,38,27,29.74,29.62,4,1,9,0.00
2013-7-16,83.0,65.4,52.0,38.0,30.2,23.0,41,29,14,29.80,29.68,4,1,9,0.00
2013-7-17,78.0,69.2,53.0,28.0,15.1,7.0,36,15,7,29.90,29.80,5,2,12,0.00
2013-7-18,82.0,76.1,66.0,25.0,22.0,20.0,19,13,11,29.85,29.74,5,2,10,0.00
2013-7-19,83.0,75.7,64.0,45.0,37.0,21.0,40,26,16,29.77,29.63,5,2,9,0.00
2013-7-20,78.0,67.1,63.0,58.0,44.5,-99.9,76,48,37,29.69,29.59,6,1,9,0.01
2013-7-21,69.0,61.6,55.0,58.0,55.2,52.0,94,80,58,29.78,29.61,5,0,7,0.75
2013-7-22,61.0,57.5,55.0,57.0,55.1,52.0,96,92,85,29.80,29.76,1,0,4,0.00